Time;durP1;ratioP1;P1;durP2;ratioP2;P2;SDS_P1;SDS_P2;PMS_P1;PMS_P2;Temp;Humidity;BMP_temperature;BMP_pressure;BME280_temperature;BME280_humidity;BME280_pressure;Samples;Min_cycle;Max_cycle;Signal;HPM_P1;HPM_P2
2021/01/19 00:00:35;;;;;;;22.38;4.05;;;5.90;99.90;;;;;;5074746;28;20115;-66
2021/01/19 00:03:00;;;;;;;15.73;3.55;;;5.90;99.90;;;;;;5081266;28;20077;-68
2021/01/19 00:05:26;;;;;;;15.32;3.88;;;5.90;99.90;;;;;;5088427;28;20069;-66
2021/01/19 00:07:51;;;;;;;12.23;3.03;;;5.90;99.90;;;;;;5075335;28;20028;-66
2021/01/19 00:10:17;;;;;;;15.27;3.40;;;5.90;99.90;;;;;;5082069;28;20028;-67
2021/01/19 00:12:42;;;;;;;14.20;3.15;;;5.90;99.90;;;;;;5077527;28;20028;-68
2021/01/19 00:15:08;;;;;;;14.88;3.17;;;5.90;99.90;;;;;;5068645;28;20093;-67
2021/01/19 00:17:34;;;;;;;17.58;3.13;;;5.90;99.90;;;;;;5088098;28;20069;-69
2021/01/19 00:20:00;;;;;;;11.57;3.33;;;5.90;99.90;;;;;;5089233;28;20035;-69
2021/01/19 00:22:26;;;;;;;13.73;2.95;;;5.90;99.90;;;;;;5087589;28;20036;-66
2021/01/19 00:24:51;;;;;;;13.40;2.90;;;5.90;99.90;;;;;;5081607;28;20560;-66
2021/01/19 00:27:17;;;;;;;14.00;3.05;;;5.90;99.90;;;;;;5086704;28;20020;-66
2021/01/19 00:29:43;;;;;;;10.32;2.80;;;5.90;99.90;;;;;;5088506;28;20036;-69
2021/01/19 00:32:08;;;;;;;16.02;3.33;;;5.90;99.90;;;;;;5088324;28;20285;-68
2021/01/19 00:34:34;;;;;;;14.55;3.17;;;5.90;99.90;;;;;;5088151;28;20024;-69
2021/01/19 00:37:00;;;;;;;11.60;2.45;;;5.90;99.90;;;;;;5088475;28;20035;-68
2021/01/19 00:39:26;;;;;;;15.15;2.95;;;5.90;99.90;;;;;;5087210;28;20032;-69
2021/01/19 00:41:53;;;;;;;13.68;2.97;;;5.90;99.90;;;;;;5088900;28;20028;-67
2021/01/19 00:44:18;;;;;;;13.57;3.25;;;5.90;99.90;;;;;;5088563;28;20473;-67
2021/01/19 00:46:44;;;;;;;12.88;2.80;;;5.90;99.90;;;;;;5050465;28;20020;-66
2021/01/19 00:49:11;;;;;;;12.05;3.47;;;5.90;99.90;;;;;;5066103;28;20325;-66
2021/01/19 00:51:37;;;;;;;15.82;3.38;;;5.90;99.90;;;;;;5070349;28;20238;-69
2021/01/19 00:54:04;;;;;;;15.63;3.13;;;5.90;99.90;;;;;;5088112;28;20540;-66
2021/01/19 00:56:41;;;;;;;14.80;3.75;;;6.00;99.90;;;;;;5088510;28;20032;-67
2021/01/19 00:59:07;;;;;;;13.35;3.47;;;6.00;99.90;;;;;;5083477;28;20481;-70
2021/01/19 01:01:33;;;;;;;12.15;3.20;;;6.00;99.90;;;;;;5085019;28;20037;-70
2021/01/19 01:03:59;;;;;;;14.20;2.95;;;6.00;99.90;;;;;;5076494;28;20020;-67
2021/01/19 01:06:25;;;;;;;13.85;3.00;;;6.00;99.90;;;;;;5088192;28;20020;-69
2021/01/19 01:08:51;;;;;;;11.30;2.95;;;6.00;99.90;;;;;;5067451;28;20119;-67
2021/01/19 01:11:17;;;;;;;20.50;2.55;;;6.10;99.90;;;;;;5088304;28;20024;-67
2021/01/19 01:13:43;;;;;;;12.70;2.92;;;6.10;99.90;;;;;;5075982;28;20040;-67
2021/01/19 01:16:13;;;;;;;14.30;2.90;;;6.10;99.90;;;;;;5087667;28;20024;-70
2021/01/19 01:18:39;;;;;;;21.55;3.42;;;6.10;99.90;;;;;;5087976;28;20024;-68
2021/01/19 01:21:08;;;;;;;16.23;3.03;;;6.10;99.90;;;;;;5086622;28;20369;-66
2021/01/19 01:23:34;;;;;;;14.68;3.33;;;6.10;99.90;;;;;;5066367;28;20028;-67
2021/01/19 01:25:59;;;;;;;17.25;3.78;;;6.10;99.90;;;;;;5077076;28;20435;-68
2021/01/19 01:28:25;;;;;;;13.68;3.25;;;6.10;99.90;;;;;;5062575;28;20071;-67
2021/01/19 01:30:50;;;;;;;19.25;3.40;;;6.10;99.90;;;;;;5068733;28;20027;-67
2021/01/19 01:33:16;;;;;;;12.85;3.38;;;6.10;99.90;;;;;;5088183;28;20066;-67
2021/01/19 01:35:43;;;;;;;14.27;3.67;;;6.10;99.90;;;;;;5088014;28;20030;-68
2021/01/19 01:38:08;;;;;;;13.43;3.78;;;6.10;99.90;;;;;;5084100;28;20066;-65
2021/01/19 01:40:35;;;;;;;16.42;3.08;;;6.10;99.90;;;;;;5082228;28;20012;-67
2021/01/19 01:43:13;;;;;;;11.88;3.38;;;6.10;99.90;;;;;;5090410;28;20036;-71
2021/01/19 01:45:40;;;;;;;8.93;2.60;;;6.10;99.90;;;;;;5076544;28;20044;-68
2021/01/19 01:48:09;;;;;;;14.00;2.95;;;6.00;99.90;;;;;;5088190;28;20377;-67
2021/01/19 01:50:37;;;;;;;16.63;3.40;;;6.00;99.90;;;;;;5082184;28;20058;-68
2021/01/19 01:53:02;;;;;;;13.27;3.00;;;6.00;99.90;;;;;;5088277;28;20074;-67
2021/01/19 01:55:28;;;;;;;15.95;3.35;;;5.90;99.90;;;;;;5090452;28;20415;-68
2021/01/19 01:57:55;;;;;;;17.13;3.25;;;5.80;99.90;;;;;;5081579;28;20482;-68
2021/01/19 02:00:21;;;;;;;19.30;3.70;;;5.70;99.90;;;;;;5084478;28;20087;-68
2021/01/19 02:02:57;;;;;;;15.10;4.18;;;5.70;99.90;;;;;;5091223;28;20024;-67
2021/01/19 02:05:24;;;;;;;14.55;3.45;;;5.70;99.90;;;;;;5092222;28;20154;-68
2021/01/19 02:08:15;;;;;;;12.45;3.50;;;5.70;99.90;;;;;;5081036;28;20115;-67
2021/01/19 02:10:57;;;;;;;10.05;3.70;;;5.60;99.90;;;;;;5092615;28;20103;-67
2021/01/19 02:13:41;;;;;;;21.05;3.55;;;5.60;99.90;;;;;;5077533;28;20052;-69
2021/01/19 02:16:29;;;;;;;16.85;3.65;;;5.50;99.90;;;;;;5071300;28;20121;-68
2021/01/19 02:19:02;;;;;;;14.80;3.60;;;5.40;99.90;;;;;;5068893;28;20401;-68
2021/01/19 02:21:36;;;;;;;17.90;4.80;;;5.40;99.90;;;;;;5071079;28;20025;-68
2021/01/19 02:24:10;;;;;;;15.15;5.18;;;5.40;99.90;;;;;;5071049;28;20024;-69
2021/01/19 02:26:47;;;;;;;16.80;4.55;;;5.40;99.90;;;;;;5060957;28;20025;-68
2021/01/19 02:29:46;;;;;;;15.50;5.45;;;5.30;99.90;;;;;;5070174;28;20035;-68
2021/01/19 02:32:19;;;;;;;22.98;4.90;;;5.30;99.90;;;;;;5071348;28;20107;-68
2021/01/19 02:34:50;;;;;;;;;;;5.20;99.90;;;;;;5071296;28;20056;-69
2021/01/19 02:37:28;;;;;;;18.40;5.68;;;5.20;99.90;;;;;;5060049;28;20161;-72
2021/01/19 02:40:01;;;;;;;22.45;4.82;;;5.20;99.90;;;;;;5069017;28;20032;-69
2021/01/19 02:42:34;;;;;;;14.10;6.20;;;5.20;99.90;;;;;;5070962;28;20066;-72
2021/01/19 02:45:03;;;;;;;25.10;6.85;;;5.20;99.90;;;;;;5071327;28;20259;-70
2021/01/19 02:47:29;;;;;;;16.98;6.53;;;5.10;99.90;;;;;;5072023;28;20028;-70
2021/01/19 02:49:54;;;;;;;16.55;6.80;;;5.10;99.90;;;;;;5071163;28;20105;-68
2021/01/19 02:52:21;;;;;;;17.67;7.03;;;5.10;99.90;;;;;;5070550;28;20033;-69
2021/01/19 02:54:47;;;;;;;20.40;6.85;;;5.00;99.90;;;;;;5066724;28;20083;-67
2021/01/19 02:57:35;;;;;;;22.55;7.43;;;5.10;99.90;;;;;;5070561;28;20059;-71
2021/01/19 03:00:14;;;;;;;25.88;8.27;;;5.10;99.90;;;;;;5049711;28;20446;-71
2021/01/19 03:02:43;;;;;;;25.08;9.20;;;5.10;99.90;;;;;;5060634;28;20066;-71
2021/01/19 03:05:10;;;;;;;19.05;9.40;;;5.00;99.90;;;;;;5058415;28;20031;-72
2021/01/19 03:07:40;;;;;;;21.67;10.35;;;5.00;99.90;;;;;;5069635;28;20021;-72
2021/01/19 03:10:06;;;;;;;19.13;10.23;;;5.00;99.90;;;;;;5070494;28;20740;-74
2021/01/19 03:12:33;;;;;;;19.42;10.05;;;5.00;99.90;;;;;;5038381;28;20047;-75
2021/01/19 03:14:59;;;;;;;32.85;11.50;;;5.00;99.90;;;;;;5110969;28;20024;-70
2021/01/19 03:17:25;;;;;;;25.30;11.05;;;5.00;99.90;;;;;;5105588;28;20019;-74
2021/01/19 03:19:51;;;;;;;26.52;12.45;;;5.00;99.90;;;;;;5092178;28;20623;-72
2021/01/19 03:22:16;;;;;;;28.10;10.57;;;5.00;99.90;;;;;;5096226;28;20046;-73
2021/01/19 03:24:42;;;;;;;23.48;12.40;;;5.00;99.90;;;;;;5091144;28;20024;-76
2021/01/19 03:27:09;;;;;;;24.10;14.02;;;5.00;99.90;;;;;;5051338;28;20052;-73
2021/01/19 03:29:35;;;;;;;20.88;12.98;;;5.00;99.90;;;;;;5100028;28;20035;-71
2021/01/19 03:32:02;;;;;;;30.17;13.27;;;5.00;99.90;;;;;;5090763;28;20020;-73
2021/01/19 03:34:27;;;;;;;25.33;14.32;;;5.10;99.90;;;;;;5090486;28;20533;-70
2021/01/19 03:36:53;;;;;;;26.30;14.77;;;5.10;99.90;;;;;;5105879;28;20035;-74
2021/01/19 03:39:19;;;;;;;29.67;15.43;;;5.10;99.90;;;;;;5103352;28;20021;-73
2021/01/19 03:41:44;;;;;;;22.88;14.70;;;5.10;99.90;;;;;;5090519;28;20028;-73
2021/01/19 03:44:10;;;;;;;28.10;15.30;;;5.10;99.90;;;;;;5093387;28;20154;-74
2021/01/19 03:46:36;;;;;;;29.30;16.58;;;5.10;99.90;;;;;;5110275;28;20033;-71
2021/01/19 03:49:03;;;;;;;31.88;16.13;;;5.10;99.90;;;;;;5074657;28;20032;-71
2021/01/19 03:51:29;;;;;;;33.10;16.83;;;5.10;99.90;;;;;;5092701;28;20019;-72
2021/01/19 03:53:55;;;;;;;29.40;17.30;;;5.10;99.90;;;;;;5089291;28;20030;-73
2021/01/19 03:56:20;;;;;;;32.15;17.60;;;5.10;99.90;;;;;;5090298;28;20525;-69
2021/01/19 03:58:47;;;;;;;26.35;16.10;;;5.10;99.90;;;;;;5090182;28;20024;-73
2021/01/19 04:01:12;;;;;;;30.00;15.65;;;5.20;99.90;;;;;;5076626;28;20055;-72
2021/01/19 04:03:38;;;;;;;33.03;17.67;;;5.20;99.90;;;;;;5089164;28;20039;-72
2021/01/19 04:06:07;;;;;;;27.23;16.58;;;5.20;99.90;;;;;;5089556;28;20020;-71
2021/01/19 04:08:36;;;;;;;30.15;18.27;;;5.20;99.90;;;;;;5089913;28;20039;-71
2021/01/19 04:11:04;;;;;;;25.27;16.38;;;5.20;99.90;;;;;;5087925;28;20024;-73
2021/01/19 04:13:31;;;;;;;28.40;17.08;;;5.20;99.90;;;;;;5074737;28;20059;-72
2021/01/19 04:15:57;;;;;;;36.10;17.25;;;5.20;99.90;;;;;;5050964;28;20078;-73
2021/01/19 04:18:23;;;;;;;29.80;16.17;;;5.20;99.90;;;;;;5049646;28;20025;-72
2021/01/19 04:20:50;;;;;;;27.40;16.27;;;5.30;99.90;;;;;;5060147;28;20139;-71
2021/01/19 04:23:15;;;;;;;31.83;17.08;;;5.20;99.90;;;;;;5050525;28;20025;-69
2021/01/19 04:25:42;;;;;;;27.88;16.50;;;5.30;99.90;;;;;;5068634;28;20031;-71
2021/01/19 04:28:08;;;;;;;32.05;16.45;;;5.30;99.90;;;;;;5058358;28;20032;-75
2021/01/19 04:30:33;;;;;;;31.58;18.17;;;5.30;99.90;;;;;;5057314;28;20033;-72
2021/01/19 04:33:00;;;;;;;32.78;18.63;;;5.30;99.90;;;;;;5050282;28;20032;-72
2021/01/19 04:35:26;;;;;;;29.88;17.83;;;5.30;99.90;;;;;;5068839;28;20047;-69
2021/01/19 04:37:51;;;;;;;34.80;18.70;;;5.30;99.90;;;;;;5046803;28;20434;-71
2021/01/19 04:40:17;;;;;;;33.67;19.08;;;5.30;99.90;;;;;;5068730;28;20040;-70
2021/01/19 04:42:43;;;;;;;30.13;17.50;;;5.30;99.90;;;;;;5067930;28;20024;-72
2021/01/19 04:45:09;;;;;;;35.50;18.40;;;5.30;99.90;;;;;;5068086;28;20069;-72
2021/01/19 04:47:36;;;;;;;27.13;18.58;;;5.30;99.90;;;;;;5065459;28;20024;-73
2021/01/19 04:50:07;;;;;;;25.45;17.27;;;5.40;99.90;;;;;;5067635;28;20044;-71
2021/01/19 04:52:33;;;;;;;31.52;16.73;;;5.40;99.90;;;;;;5068228;28;20020;-71
2021/01/19 04:55:03;;;;;;;30.00;17.13;;;5.40;99.90;;;;;;5069226;28;20017;-72
2021/01/19 04:57:31;;;;;;;29.63;18.30;;;5.40;99.90;;;;;;5059738;28;20025;-72
2021/01/19 05:00:04;;;;;;;30.95;19.70;;;5.40;99.90;;;;;;5045224;28;20024;-71
2021/01/19 05:02:37;;;;;;;31.23;19.17;;;5.40;99.90;;;;;;5068654;28;20028;-71
2021/01/19 05:05:23;;;;;;;33.50;18.58;;;5.40;99.90;;;;;;5068620;28;20036;-72
2021/01/19 05:08:19;;;;;;;31.73;18.67;;;5.50;99.90;;;;;;5054521;28;20489;-71
2021/01/19 05:10:59;;;;;;;28.00;17.15;;;5.50;99.90;;;;;;5068399;28;20078;-71
2021/01/19 05:13:46;;;;;;;34.25;19.40;;;5.50;99.90;;;;;;5073206;28;20053;-74
2021/01/19 05:16:17;;;;;;;30.80;17.42;;;5.50;99.90;;;;;;5081457;28;20103;-71
2021/01/19 05:18:44;;;;;;;29.67;16.88;;;5.50;99.90;;;;;;5078776;28;20035;-73
2021/01/19 05:21:11;;;;;;;30.77;16.90;;;5.50;99.90;;;;;;5075452;28;20232;-73
2021/01/19 05:23:37;;;;;;;28.75;17.20;;;5.50;99.90;;;;;;5067378;28;20059;-73
2021/01/19 05:26:04;;;;;;;26.23;16.23;;;5.60;99.90;;;;;;5080436;28;20048;-71
2021/01/19 05:28:39;;;;;;;33.53;17.67;;;5.60;99.90;;;;;;5072513;28;20033;-73
2021/01/19 05:31:16;;;;;;;28.45;15.63;;;5.60;99.90;;;;;;5084150;28;20499;-72
2021/01/19 05:33:43;;;;;;;29.92;15.65;;;5.70;99.90;;;;;;5088055;28;20358;-72
2021/01/19 05:36:12;;;;;;;26.40;16.52;;;5.70;99.90;;;;;;5086595;28;20032;-73
2021/01/19 05:38:44;;;;;;;23.92;15.98;;;5.70;99.90;;;;;;5050746;28;20045;-74
2021/01/19 05:41:10;;;;;;;25.88;15.35;;;5.70;99.90;;;;;;5081837;28;20226;-72
2021/01/19 05:43:36;;;;;;;23.35;14.88;;;5.70;99.90;;;;;;5077147;28;20043;-73
2021/01/19 05:46:03;;;;;;;22.95;14.13;;;5.80;99.90;;;;;;5080828;28;20040;-75
2021/01/19 05:48:38;;;;;;;23.30;14.07;;;5.80;99.90;;;;;;5053057;28;20025;-73
2021/01/19 05:51:05;;;;;;;28.20;14.88;;;5.80;99.90;;;;;;5055058;28;20044;-75
2021/01/19 05:53:33;;;;;;;22.00;13.27;;;5.80;99.90;;;;;;5076636;28;20031;-74
2021/01/19 05:56:08;;;;;;;23.13;14.05;;;5.90;99.90;;;;;;5070096;28;20105;-72
2021/01/19 05:58:36;;;;;;;18.52;12.65;;;5.90;99.90;;;;;;5078150;28;20432;-73
2021/01/19 06:01:06;;;;;;;17.38;11.23;;;5.90;99.90;;;;;;5079182;28;20101;-72
2021/01/19 06:03:35;;;;;;;18.38;11.35;;;6.00;99.90;;;;;;5087876;28;20481;-72
2021/01/19 06:06:14;;;;;;;18.73;11.07;;;6.00;99.90;;;;;;5086331;28;20112;-70
2021/01/19 06:08:45;;;;;;;19.17;11.25;;;6.00;99.90;;;;;;5069360;28;20109;-72
2021/01/19 06:11:12;;;;;;;16.70;9.93;;;6.00;99.90;;;;;;5076570;28;20546;-72
2021/01/19 06:13:42;;;;;;;16.52;10.15;;;6.10;99.90;;;;;;5086712;28;20040;-73
2021/01/19 06:16:08;;;;;;;16.55;9.10;;;6.00;99.90;;;;;;5083480;28;20394;-74
2021/01/19 06:18:38;;;;;;;16.77;9.85;;;6.10;99.90;;;;;;5072139;28;20035;-72
2021/01/19 06:21:06;;;;;;;16.23;9.48;;;6.10;99.90;;;;;;5091494;28;20025;-74
2021/01/19 06:23:33;;;;;;;13.05;8.00;;;6.20;99.90;;;;;;5088280;28;20036;-74
2021/01/19 06:26:06;;;;;;;15.05;7.80;;;6.20;99.90;;;;;;5060813;28;20020;-73
2021/01/19 06:28:40;;;;;;;;;;;6.20;99.90;;;;;;5087573;28;20062;-72
2021/01/19 06:31:19;;;;;;;13.38;7.38;;;6.30;99.90;;;;;;5104966;28;20030;-73
2021/01/19 06:33:50;;;;;;;15.15;6.50;;;6.30;99.90;;;;;;5071571;28;20020;-72
2021/01/19 06:36:20;;;;;;;13.25;6.00;;;6.30;99.90;;;;;;5084170;28;20162;-74
2021/01/19 06:38:47;;;;;;;10.38;6.03;;;6.40;99.90;;;;;;5072591;28;20020;-74
2021/01/19 06:41:18;;;;;;;12.95;6.18;;;6.40;99.90;;;;;;5092025;28;20461;-71
2021/01/19 06:43:54;;;;;;;12.07;6.03;;;6.40;99.90;;;;;;5088832;28;20017;-73
2021/01/19 06:46:19;;;;;;;11.55;5.95;;;6.40;99.90;;;;;;5089654;28;20048;-72
2021/01/19 06:48:46;;;;;;;12.77;5.30;;;6.40;99.90;;;;;;5082955;28;20059;-72
2021/01/19 06:51:13;;;;;;;9.23;5.20;;;6.50;99.90;;;;;;5077517;28;20546;-71
2021/01/19 06:53:45;;;;;;;9.48;5.00;;;6.50;99.90;;;;;;5086405;28;20024;-71
2021/01/19 06:56:15;;;;;;;10.35;4.57;;;6.50;99.90;;;;;;5053311;28;20028;-75
2021/01/19 06:58:53;;;;;;;14.98;4.53;;;6.50;99.90;;;;;;5087681;28;20024;-71
2021/01/19 07:01:24;;;;;;;11.20;4.60;;;6.50;99.90;;;;;;5074509;28;20461;-73
2021/01/19 07:04:05;;;;;;;10.07;4.03;;;6.50;99.90;;;;;;5089693;28;20107;-72
2021/01/19 07:07:07;;;;;;;8.70;4.18;;;6.50;99.90;;;;;;5090398;28;20048;-74
2021/01/19 07:10:07;;;;;;;6.32;3.47;;;6.50;99.90;;;;;;5090400;28;20035;-73
2021/01/19 07:12:55;;;;;;;7.88;3.90;;;6.60;99.90;;;;;;5076618;28;20277;-73
2021/01/19 07:15:33;;;;;;;11.05;4.05;;;6.60;99.90;;;;;;5090689;28;20527;-74
2021/01/19 07:18:22;;;;;;;5.38;3.47;;;6.60;99.90;;;;;;5068417;28;20024;-71
2021/01/19 07:21:06;;;;;;;7.55;3.47;;;6.60;99.90;;;;;;5076490;28;20082;-72
2021/01/19 07:23:47;;;;;;;11.23;4.18;;;6.60;99.90;;;;;;5087645;28;20085;-71
2021/01/19 07:26:18;;;;;;;5.82;3.20;;;6.60;99.90;;;;;;5091091;28;20417;-72
2021/01/19 07:28:45;;;;;;;11.02;3.85;;;6.60;99.90;;;;;;5088025;28;20032;-70
2021/01/19 07:31:12;;;;;;;10.50;4.28;;;6.60;99.90;;;;;;5090349;28;20450;-75
2021/01/19 07:34:07;;;;;;;7.00;3.92;;;6.70;99.90;;;;;;5071708;28;20183;-71
2021/01/19 07:36:33;;;;;;;5.40;3.20;;;6.70;99.90;;;;;;5078812;28;20060;-71
2021/01/19 07:38:58;;;;;;;7.13;3.33;;;6.70;99.90;;;;;;5089012;28;20105;-71
2021/01/19 07:41:32;;;;;;;9.80;4.05;;;6.70;99.90;;;;;;5081281;28;20017;-71
2021/01/19 07:43:59;;;;;;;8.30;3.78;;;6.70;99.90;;;;;;5080397;28;20686;-73
2021/01/19 07:46:29;;;;;;;9.35;4.20;;;6.80;99.90;;;;;;5085909;28;20027;-74
2021/01/19 07:49:05;;;;;;;9.40;4.15;;;6.80;99.90;;;;;;5070002;28;20039;-73
2021/01/19 07:51:43;;;;;;;9.32;4.13;;;6.80;99.90;;;;;;5068808;28;20027;-71
2021/01/19 07:54:10;;;;;;;14.48;4.65;;;6.80;99.90;;;;;;5076619;28;20389;-72
2021/01/19 07:56:36;;;;;;;9.63;4.32;;;6.80;99.90;;;;;;5083619;28;20476;-73
2021/01/19 07:59:01;;;;;;;7.18;4.78;;;6.90;99.90;;;;;;5088389;28;20062;-74
2021/01/19 08:01:28;;;;;;;8.40;5.53;;;6.90;99.90;;;;;;5089811;28;20377;-72
2021/01/19 08:03:54;;;;;;;12.63;5.28;;;6.90;99.90;;;;;;5089240;28;20384;-72
2021/01/19 08:06:49;;;;;;;6.95;5.15;;;6.90;99.90;;;;;;5072080;28;20020;-72
2021/01/19 08:09:16;;;;;;;9.30;5.45;;;7.00;99.90;;;;;;5087606;28;20032;-73
2021/01/19 08:11:44;;;;;;;7.97;5.13;;;7.00;99.90;;;;;;5072719;28;20035;-70
2021/01/19 08:14:10;;;;;;;9.05;4.90;;;7.00;99.90;;;;;;5088735;28;20977;-73
2021/01/19 08:16:38;;;;;;;10.02;5.38;;;7.00;99.90;;;;;;5090100;28;20026;-71
2021/01/19 08:19:14;;;;;;;9.82;4.85;;;7.00;99.90;;;;;;5089614;28;20103;-72
2021/01/19 08:21:49;;;;;;;9.45;5.35;;;7.10;99.90;;;;;;5098763;28;20048;-72
2021/01/19 08:24:15;;;;;;;10.95;5.80;;;7.10;99.90;;;;;;5074679;28;20482;-71
2021/01/19 08:26:43;;;;;;;10.30;5.70;;;7.10;99.90;;;;;;5086250;28;20028;-73
2021/01/19 08:29:09;;;;;;;5.93;4.20;;;7.20;99.90;;;;;;5069680;28;20035;-71
2021/01/19 08:31:38;;;;;;;9.38;5.13;;;7.20;99.90;;;;;;5069481;28;20016;-72
2021/01/19 08:34:09;;;;;;;10.43;5.18;;;7.20;99.90;;;;;;5088328;28;20060;-71
2021/01/19 08:36:35;;;;;;;10.30;5.40;;;7.30;99.90;;;;;;5086803;28;20025;-73
2021/01/19 08:39:04;;;;;;;15.02;5.60;;;7.30;99.90;;;;;;5070566;28;20397;-72
2021/01/19 08:41:30;;;;;;;17.27;5.57;;;7.30;99.90;;;;;;5089371;28;20089;-72
2021/01/19 08:44:01;;;;;;;8.20;5.07;;;7.30;99.90;;;;;;5088889;28;20030;-73
2021/01/19 08:46:29;;;;;;;9.35;5.05;;;7.30;99.90;;;;;;5069516;28;20016;-71
2021/01/19 08:49:15;;;;;;;6.75;5.00;;;7.40;99.90;;;;;;5089999;28;20119;-72
2021/01/19 08:51:50;;;;;;;10.85;5.40;;;7.40;99.90;;;;;;5087669;28;20028;-71
2021/01/19 08:54:36;;;;;;;10.50;5.22;;;7.40;99.90;;;;;;5088928;28;20024;-71
2021/01/19 08:57:03;;;;;;;9.75;5.53;;;7.40;99.90;;;;;;5087658;28;20392;-73
2021/01/19 08:59:28;;;;;;;7.82;6.07;;;7.40;99.90;;;;;;5066694;28;20024;-72
2021/01/19 09:01:55;;;;;;;8.63;5.28;;;7.40;99.90;;;;;;5085116;28;20024;-71
2021/01/19 09:04:26;;;;;;;7.80;5.25;;;7.50;99.90;;;;;;5071903;28;20056;-73
2021/01/19 09:06:52;;;;;;;12.55;5.95;;;7.50;99.90;;;;;;5087674;28;20064;-72
2021/01/19 09:09:22;;;;;;;10.38;6.15;;;7.50;99.90;;;;;;5088571;28;20511;-72
2021/01/19 09:11:52;;;;;;;9.73;6.18;;;7.50;99.90;;;;;;5089137;28;20078;-73
2021/01/19 09:14:24;;;;;;;11.43;6.93;;;7.50;99.90;;;;;;5068614;28;20059;-72
2021/01/19 09:16:54;;;;;;;10.90;6.03;;;7.50;99.90;;;;;;5069357;28;20377;-75
2021/01/19 09:19:20;;;;;;;10.55;6.47;;;7.50;99.90;;;;;;5067723;28;20104;-71
2021/01/19 09:21:48;;;;;;;10.10;5.88;;;7.50;99.90;;;;;;5041472;28;20120;-75
2021/01/19 09:24:21;;;;;;;11.88;7.32;;;7.60;99.90;;;;;;5061062;28;20052;-71
2021/01/19 09:27:01;;;;;;;12.60;6.80;;;7.60;99.90;;;;;;5050821;28;20433;-74
2021/01/19 09:29:32;;;;;;;12.82;7.00;;;7.60;99.90;;;;;;5030721;28;20613;-72
2021/01/19 09:32:00;;;;;;;7.20;6.05;;;7.60;99.90;;;;;;5070511;28;20020;-75
2021/01/19 09:34:27;;;;;;;9.60;7.10;;;7.60;99.90;;;;;;5054517;28;20025;-74
2021/01/19 09:36:54;;;;;;;11.18;6.22;;;7.60;99.90;;;;;;5050086;28;20397;-75
2021/01/19 09:39:27;;;;;;;7.20;5.93;;;7.60;99.90;;;;;;5069808;28;20056;-73
2021/01/19 09:41:54;;;;;;;12.73;6.38;;;7.60;99.90;;;;;;5067897;28;20256;-72
2021/01/19 09:44:20;;;;;;;14.05;7.15;;;7.60;99.90;;;;;;5066320;28;20085;-72
2021/01/19 09:46:52;;;;;;;11.18;6.72;;;7.60;99.90;;;;;;5068765;28;20029;-73
2021/01/19 09:49:19;;;;;;;11.20;7.30;;;7.60;99.90;;;;;;5038482;28;20493;-72
2021/01/19 09:51:45;;;;;;;11.55;7.65;;;7.60;99.90;;;;;;5062539;28;20024;-71
2021/01/19 09:54:11;;;;;;;11.13;7.15;;;7.60;99.90;;;;;;5067634;28;20029;-75
2021/01/19 09:56:37;;;;;;;17.95;8.02;;;7.60;99.90;;;;;;5068266;28;20021;-72
2021/01/19 09:59:04;;;;;;;14.82;7.80;;;7.60;99.90;;;;;;5047293;28;20062;-72
2021/01/19 10:01:30;;;;;;;15.48;7.95;;;7.60;99.90;;;;;;5068873;28;20067;-72
2021/01/19 10:03:56;;;;;;;8.18;6.55;;;7.70;99.90;;;;;;5067946;28;20050;-71
2021/01/19 10:06:25;;;;;;;14.95;7.90;;;7.70;99.90;;;;;;5048947;28;20574;-74
2021/01/19 10:08:54;;;;;;;15.90;9.00;;;7.80;99.90;;;;;;5058724;28;20602;-74
2021/01/19 10:11:37;;;;;;;15.73;10.70;;;7.80;99.90;;;;;;5068313;28;20316;-79
2021/01/19 10:14:14;;;;;;;16.73;10.10;;;7.80;99.90;;;;;;5058296;28;20049;-73
2021/01/19 10:16:48;;;;;;;20.75;11.23;;;7.80;99.90;;;;;;5049931;28;20028;-72
2021/01/19 10:19:23;;;;;;;18.15;11.68;;;7.80;99.90;;;;;;5071129;28;20052;-71
2021/01/19 10:21:50;;;;;;;23.27;12.18;;;7.80;99.90;;;;;;5072208;28;20024;-72
2021/01/19 10:24:17;;;;;;;21.48;12.23;;;7.90;99.90;;;;;;5068588;28;20064;-72
2021/01/19 10:26:59;;;;;;;20.90;12.50;;;7.90;99.90;;;;;;5071057;28;20392;-70
2021/01/19 10:29:26;;;;;;;21.40;13.73;;;7.90;99.90;;;;;;5070542;28;20040;-72
2021/01/19 10:32:00;;;;;;;29.65;14.00;;;8.00;99.90;;;;;;5053064;28;20028;-73
2021/01/19 10:34:27;;;;;;;22.90;13.98;;;8.20;99.90;;;;;;5071019;28;20078;-71
2021/01/19 10:36:55;;;;;;;19.67;13.13;;;8.20;99.90;;;;;;5063340;28;20039;-72
2021/01/19 10:39:22;;;;;;;24.23;13.93;;;8.30;99.90;;;;;;5063155;28;20497;-71
2021/01/19 10:41:53;;;;;;;21.27;13.40;;;8.30;99.90;;;;;;5033416;28;20025;-72
2021/01/19 10:44:21;;;;;;;22.42;13.15;;;8.40;99.90;;;;;;5047179;28;20028;-75
2021/01/19 10:46:54;;;;;;;20.92;11.75;;;8.40;99.90;;;;;;5047642;28;20017;-72
2021/01/19 10:49:20;;;;;;;21.27;10.35;;;8.50;99.90;;;;;;5047595;28;20124;-73
2021/01/19 10:51:49;;;;;;;19.92;11.20;;;8.60;99.90;;;;;;5061418;28;20099;-73
2021/01/19 10:54:17;;;;;;;25.38;7.00;;;8.60;99.90;;;;;;5063797;28;20467;-73
2021/01/19 10:56:45;;;;;;;20.00;5.28;;;8.80;99.90;;;;;;5059521;28;20009;-75
2021/01/19 10:59:11;;;;;;;12.55;3.80;;;9.00;99.90;;;;;;5060542;28;20039;-72
2021/01/19 11:01:38;;;;;;;14.35;4.03;;;9.10;99.90;;;;;;5064210;28;20029;-75
2021/01/19 11:04:05;;;;;;;23.42;4.38;;;9.20;99.90;;;;;;5058443;28;20607;-72
2021/01/19 11:06:36;;;;;;;21.40;4.07;;;9.30;99.90;;;;;;5073360;28;20016;-71
2021/01/19 11:09:05;;;;;;;15.40;3.10;;;9.40;99.90;;;;;;5055228;28;20461;-70
2021/01/19 11:11:34;;;;;;;18.30;3.60;;;9.50;99.90;;;;;;5075199;28;20268;-72
2021/01/19 11:14:04;;;;;;;20.83;3.65;;;9.50;99.90;;;;;;5086958;28;20052;-72
2021/01/19 11:16:40;;;;;;;16.27;3.15;;;9.50;99.90;;;;;;5064731;28;20017;-71
2021/01/19 11:19:12;;;;;;;16.08;3.53;;;9.50;99.90;;;;;;5057478;28;20021;-72
2021/01/19 11:21:41;;;;;;;14.18;2.97;;;9.60;99.90;;;;;;5054733;28;20907;-72
2021/01/19 11:24:09;;;;;;;11.07;3.00;;;9.60;99.90;;;;;;5059463;28;20121;-71
2021/01/19 11:26:40;;;;;;;16.58;3.00;;;9.70;99.90;;;;;;5071757;28;20016;-71
2021/01/19 11:29:09;;;;;;;16.83;3.40;;;9.70;99.90;;;;;;5070833;28;20088;-74
2021/01/19 11:31:36;;;;;;;13.48;3.50;;;9.70;99.90;;;;;;5071359;28;20019;-73
2021/01/19 11:34:05;;;;;;;14.55;3.10;;;9.70;99.90;;;;;;5071711;28;20035;-70
2021/01/19 11:36:33;;;;;;;8.60;3.00;;;9.70;99.90;;;;;;5048970;28;20021;-71
2021/01/19 11:38:59;;;;;;;17.77;2.67;;;9.70;99.90;;;;;;5043662;28;20039;-73
2021/01/19 11:41:28;;;;;;;14.10;3.28;;;9.70;99.90;;;;;;5066340;28;20070;-71
2021/01/19 11:43:54;;;;;;;14.88;3.45;;;9.70;99.90;;;;;;5044907;28;20032;-74
2021/01/19 11:46:25;;;;;;;19.98;3.42;;;9.70;99.90;;;;;;5064422;28;20028;-72
2021/01/19 11:48:52;;;;;;;16.20;3.22;;;9.80;99.90;;;;;;5063534;28;20045;-71
2021/01/19 11:51:29;;;;;;;11.40;2.95;;;9.80;99.90;;;;;;5064120;28;20784;-69
2021/01/19 11:53:56;;;;;;;12.43;3.33;;;9.80;99.90;;;;;;5070603;28;20080;-71
2021/01/19 11:56:40;;;;;;;15.77;3.10;;;9.80;99.90;;;;;;5058316;28;20048;-71
2021/01/19 11:59:07;;;;;;;18.90;2.58;;;9.80;99.90;;;;;;5067727;28;20020;-72
2021/01/19 12:01:33;;;;;;;18.85;3.30;;;9.80;99.90;;;;;;5051710;28;20129;-72
2021/01/19 12:03:59;;;;;;;18.88;2.97;;;9.90;99.90;;;;;;5066206;28;20067;-73
2021/01/19 12:06:25;;;;;;;19.15;3.20;;;9.80;99.90;;;;;;5059863;28;20049;-73
2021/01/19 12:08:52;;;;;;;13.60;2.78;;;9.90;99.90;;;;;;5050745;28;20036;-72
2021/01/19 12:11:18;;;;;;;15.93;2.85;;;9.90;99.90;;;;;;5067341;28;20509;-71
2021/01/19 12:13:45;;;;;;;19.60;3.22;;;9.90;99.90;;;;;;5084515;28;20052;-71
2021/01/19 12:16:12;;;;;;;16.67;3.08;;;9.90;99.90;;;;;;5054525;28;20024;-69
2021/01/19 12:18:39;;;;;;;12.88;2.60;;;9.90;99.90;;;;;;5089968;28;20522;-71
2021/01/19 12:21:09;;;;;;;21.92;2.92;;;9.90;99.90;;;;;;5099687;28;20028;-74
2021/01/19 12:23:35;;;;;;;22.42;2.92;;;9.90;99.90;;;;;;5077448;28;20020;-70
2021/01/19 12:26:01;;;;;;;14.38;2.33;;;10.00;99.90;;;;;;5087429;28;20040;-72
2021/01/19 12:28:26;;;;;;;16.38;2.92;;;9.90;99.90;;;;;;5060140;28;20037;-71
2021/01/19 12:30:54;;;;;;;13.45;2.10;;;9.90;99.90;;;;;;5085525;28;20143;-73
2021/01/19 12:33:20;;;;;;;12.45;2.10;;;10.00;99.90;;;;;;5086720;28;20099;-69
2021/01/19 12:35:50;;;;;;;13.80;2.17;;;10.00;99.90;;;;;;5070653;28;20125;-74
2021/01/19 12:38:16;;;;;;;12.80;2.30;;;10.00;99.90;;;;;;5085573;28;20016;-70
2021/01/19 12:40:41;;;;;;;12.52;1.75;;;10.00;99.90;;;;;;5088169;28;20817;-71
2021/01/19 12:43:08;;;;;;;9.45;1.80;;;10.00;99.90;;;;;;5079927;28;20096;-72
2021/01/19 12:45:37;;;;;;;12.80;2.45;;;10.10;99.90;;;;;;5086527;28;20020;-73
2021/01/19 12:48:05;;;;;;;5.65;1.65;;;10.10;99.90;;;;;;5087532;28;20024;-72
2021/01/19 12:50:32;;;;;;;8.32;1.73;;;10.20;99.90;;;;;;5086535;28;20039;-73
2021/01/19 12:53:00;;;;;;;3.50;1.17;;;10.20;99.90;;;;;;5085861;28;20489;-72
2021/01/19 12:55:26;;;;;;;8.15;1.98;;;10.20;99.90;;;;;;5069475;28;20032;-72
2021/01/19 12:57:52;;;;;;;14.10;2.15;;;10.20;99.90;;;;;;5088733;28;20028;-73